Time;durP1;ratioP1;P1;durP2;ratioP2;P2;SDS_P1;SDS_P2;PMS_P1;PMS_P2;Temp;Humidity;BMP_temperature;BMP_pressure;BME280_temperature;BME280_humidity;BME280_pressure;Samples;Min_cycle;Max_cycle;Signal;HPM_P1;HPM_P2
2022/06/06 00:00:46;;;;;;;1.02;0.85;;;;;;;;;;5022030;28;20038;-50
2022/06/06 00:03:14;;;;;;;1.35;1.10;;;;;;;;;;5020658;28;20414;-47
2022/06/06 00:05:44;;;;;;;1.23;0.85;;;;;;;;;;5017411;28;20034;-50
2022/06/06 00:08:11;;;;;;;3.33;0.80;;;;;;;;;;5016126;28;20030;-42
2022/06/06 00:10:38;;;;;;;1.17;1.00;;;;;;;;;;5015763;28;20037;-47
2022/06/06 00:13:04;;;;;;;1.60;0.70;;;;;;;;;;5019777;28;20375;-43
2022/06/06 00:15:30;;;;;;;1.48;0.95;;;;;;;;;;5018881;28;20080;-41
2022/06/06 00:17:56;;;;;;;1.48;0.80;;;;;;;;;;5022923;28;20069;-42
2022/06/06 00:20:23;;;;;;;2.28;0.93;;;;;;;;;;5019888;28;20018;-41
2022/06/06 00:22:49;;;;;;;1.25;1.00;;;;;;;;;;5014194;28;20033;-41
2022/06/06 00:25:16;;;;;;;0.82;0.70;;;;;;;;;;5021877;28;20362;-59
2022/06/06 00:27:42;;;;;;;2.15;0.85;;;;;;;;;;5014116;28;20019;-59
2022/06/06 00:30:08;;;;;;;1.15;1.05;;;;;;;;;;5014651;28;20022;-57
2022/06/06 00:35:20;;;;;;;1.10;0.80;;;;;;;;;;5027273;28;20049;-55
2022/06/06 00:37:47;;;;;;;2.72;0.75;;;;;;;;;;5013727;28;20025;-56
2022/06/06 00:40:14;;;;;;;1.02;0.82;;;;;;;;;;5011585;28;20044;-50
2022/06/06 00:42:41;;;;;;;2.97;1.52;;;;;;;;;;4993302;28;20384;-58
2022/06/06 00:45:26;;;;;;;0.80;0.80;;;;;;;;;;5009000;28;20121;-57
2022/06/06 00:47:58;;;;;;;1.58;1.05;;;;;;;;;;5009781;28;20487;-57
2022/06/06 00:50:36;;;;;;;2.13;0.75;;;;;;;;;;5011253;28;20022;-57
2022/06/06 00:53:02;;;;;;;1.25;1.00;;;;;;;;;;5008685;28;20117;-58
2022/06/06 00:55:30;;;;;;;0.98;0.75;;;;;;;;;;5008018;28;20048;-57
2022/06/06 00:58:01;;;;;;;1.10;0.82;;;;;;;;;;5010125;28;20018;-57
2022/06/06 01:00:27;;;;;;;0.70;0.70;;;;;;;;;;5009501;28;20073;-56
2022/06/06 01:02:56;;;;;;;0.90;0.90;;;;;;;;;;5014472;28;20374;-58
2022/06/06 01:05:23;;;;;;;1.17;0.80;;;;;;;;;;5021350;28;20022;-57
2022/06/06 01:07:49;;;;;;;0.93;0.88;;;;;;;;;;5020226;28;20034;-58
2022/06/06 01:10:16;;;;;;;0.98;0.70;;;;;;;;;;5013933;28;20025;-59
2022/06/06 01:12:43;;;;;;;1.08;0.98;;;;;;;;;;5018718;28;20021;-59
2022/06/06 01:15:10;;;;;;;1.35;0.68;;;;;;;;;;5013906;28;20080;-59
2022/06/06 01:17:46;;;;;;;1.35;0.70;;;;;;;;;;5018397;28;20435;-59
2022/06/06 01:20:30;;;;;;;0.93;0.82;;;;;;;;;;5014635;28;20026;-59
2022/06/06 01:23:05;;;;;;;0.60;0.60;;;;;;;;;;5009929;28;20474;-59
2022/06/06 01:25:31;;;;;;;2.70;0.90;;;;;;;;;;5026312;28;20498;-60
2022/06/06 01:28:02;;;;;;;1.67;0.82;;;;;;;;;;5032993;28;20029;-58
2022/06/06 01:30:33;;;;;;;1.05;0.90;;;;;;;;;;5033960;28;20025;-58
2022/06/06 01:33:02;;;;;;;1.40;0.90;;;;;;;;;;5022088;28;20054;-59
2022/06/06 01:35:28;;;;;;;1.23;0.90;;;;;;;;;;5019011;28;20038;-59
2022/06/06 01:37:54;;;;;;;0.70;0.65;;;;;;;;;;5012901;28;20030;-58
2022/06/06 01:40:20;;;;;;;1.25;0.90;;;;;;;;;;5013283;28;20030;-58
2022/06/06 01:42:49;;;;;;;2.83;0.82;;;;;;;;;;5016203;28;20026;-59
2022/06/06 01:45:23;;;;;;;1.00;0.88;;;;;;;;;;5021113;28;20042;-56
2022/06/06 01:47:51;;;;;;;1.33;0.98;;;;;;;;;;5012067;28;20038;-58
2022/06/06 01:50:18;;;;;;;1.67;1.20;;;;;;;;;;5015433;28;20406;-58
2022/06/06 01:53:00;;;;;;;1.85;0.90;;;;;;;;;;5012790;28;20052;-58
2022/06/06 01:55:28;;;;;;;0.75;0.70;;;;;;;;;;5012329;28;20042;-59
2022/06/06 01:57:56;;;;;;;1.10;1.00;;;;;;;;;;5016476;28;20037;-58
2022/06/06 02:00:22;;;;;;;1.73;0.80;;;;;;;;;;5014457;28;20060;-58
2022/06/06 02:02:48;;;;;;;1.10;1.00;;;;;;;;;;5010445;28;20430;-58
2022/06/06 02:05:15;;;;;;;1.05;0.80;;;;;;;;;;5009611;28;20040;-58
2022/06/06 02:07:42;;;;;;;1.65;0.95;;;;;;;;;;5010806;28;20042;-58
2022/06/06 02:10:09;;;;;;;1.63;1.10;;;;;;;;;;5010123;28;20541;-59
2022/06/06 02:12:36;;;;;;;0.85;0.70;;;;;;;;;;5010172;28;20029;-59
2022/06/06 02:15:03;;;;;;;1.30;0.88;;;;;;;;;;5008855;28;20391;-58
2022/06/06 02:17:29;;;;;;;1.83;1.00;;;;;;;;;;4990876;28;20415;-59
2022/06/06 02:19:55;;;;;;;2.10;0.93;;;;;;;;;;5010302;28;20022;-60
2022/06/06 02:22:22;;;;;;;2.95;0.90;;;;;;;;;;5009787;28;20029;-60
2022/06/06 02:24:48;;;;;;;1.90;0.90;;;;;;;;;;5009364;28;20045;-60
2022/06/06 02:27:14;;;;;;;1.55;1.15;;;;;;;;;;5006295;28;20025;-60
2022/06/06 02:29:41;;;;;;;1.52;1.00;;;;;;;;;;5010826;28;20022;-60
2022/06/06 02:32:08;;;;;;;0.93;0.80;;;;;;;;;;5014626;28;20030;-59
2022/06/06 02:34:34;;;;;;;2.00;1.38;;;;;;;;;;5018041;28;20121;-59
2022/06/06 02:37:00;;;;;;;1.10;1.00;;;;;;;;;;5011413;28;20061;-59
2022/06/06 02:39:26;;;;;;;0.95;0.68;;;;;;;;;;5016345;28;20033;-59
2022/06/06 02:41:52;;;;;;;1.02;0.75;;;;;;;;;;5016542;28;20032;-58
2022/06/06 02:44:18;;;;;;;0.93;0.82;;;;;;;;;;5019820;28;20030;-58
2022/06/06 02:46:44;;;;;;;1.23;1.13;;;;;;;;;;5011072;28;20096;-58
2022/06/06 02:49:10;;;;;;;1.10;0.93;;;;;;;;;;5013960;28;20034;-59
2022/06/06 02:51:36;;;;;;;0.98;0.85;;;;;;;;;;5016121;28;20044;-58
2022/06/06 02:54:03;;;;;;;1.00;0.88;;;;;;;;;;5010662;28;20357;-58
2022/06/06 02:56:29;;;;;;;1.13;0.73;;;;;;;;;;5015146;28;20108;-58
2022/06/06 02:58:56;;;;;;;1.77;1.10;;;;;;;;;;5010480;28;20057;-58
2022/06/06 03:01:22;;;;;;;1.17;0.90;;;;;;;;;;5017570;28;20059;-59
2022/06/06 03:03:48;;;;;;;1.48;1.10;;;;;;;;;;5013953;28;20391;-59
2022/06/06 03:06:14;;;;;;;1.73;1.00;;;;;;;;;;5017901;28;20036;-59
2022/06/06 03:08:56;;;;;;;0.98;0.85;;;;;;;;;;5019956;28;20056;-59
2022/06/06 03:11:28;;;;;;;1.35;1.00;;;;;;;;;;5006162;28;20044;-58
2022/06/06 03:14:13;;;;;;;1.25;1.08;;;;;;;;;;5011785;28;20442;-58
2022/06/06 03:22:41;;;;;;;1.00;0.90;;;;;;;;;;5014032;28;20080;-59
2022/06/06 03:25:10;;;;;;;2.17;0.80;;;;;;;;;;5012665;28;20034;-59
2022/06/06 03:27:39;;;;;;;1.00;0.90;;;;;;;;;;5005591;28;20028;-58
2022/06/06 03:30:14;;;;;;;1.33;1.05;;;;;;;;;;5007534;28;20452;-59
2022/06/06 03:32:58;;;;;;;1.42;1.27;;;;;;;;;;5008474;28;20357;-58
2022/06/06 03:35:34;;;;;;;1.55;1.02;;;;;;;;;;5003965;28;20426;-59
2022/06/06 03:38:05;;;;;;;1.45;1.00;;;;;;;;;;5005964;28;20482;-59
2022/06/06 03:40:34;;;;;;;1.60;1.15;;;;;;;;;;5008298;28;20349;-59
2022/06/06 03:43:02;;;;;;;2.13;1.23;;;;;;;;;;5009151;28;20032;-58
2022/06/06 03:45:38;;;;;;;1.33;0.98;;;;;;;;;;4967487;28;1099920;-58
2022/06/06 03:48:05;;;;;;;1.42;1.05;;;;;;;;;;5004225;28;20432;-58
2022/06/06 03:50:57;;;;;;;1.27;0.90;;;;;;;;;;5014097;28;20018;-58
2022/06/06 03:53:28;;;;;;;4.65;1.55;;;;;;;;;;5018846;28;20109;-58
2022/06/06 03:56:11;;;;;;;1.92;1.05;;;;;;;;;;5013645;28;20049;-59
2022/06/06 03:58:38;;;;;;;1.10;1.00;;;;;;;;;;5006495;28;20065;-58
2022/06/06 04:01:06;;;;;;;1.10;1.00;;;;;;;;;;5016075;28;20097;-58
2022/06/06 04:03:33;;;;;;;1.15;0.82;;;;;;;;;;5015337;28;20026;-58
2022/06/06 04:06:01;;;;;;;1.88;0.90;;;;;;;;;;5012905;28;20030;-58
2022/06/06 04:08:27;;;;;;;2.17;1.05;;;;;;;;;;5012214;28;20030;-58
2022/06/06 04:11:16;;;;;;;0.93;0.80;;;;;;;;;;5014065;28;20391;-58
2022/06/06 04:13:45;;;;;;;1.42;0.90;;;;;;;;;;5006251;28;20044;-60
2022/06/06 04:16:17;;;;;;;1.42;1.00;;;;;;;;;;5017321;28;20169;-60
2022/06/06 04:19:02;;;;;;;2.03;1.25;;;;;;;;;;5009279;28;20026;-58
2022/06/06 04:21:33;;;;;;;2.33;0.88;;;;;;;;;;5011006;28;20034;-59
2022/06/06 04:24:32;;;;;;;1.45;1.17;;;;;;;;;;5016603;28;20026;-58
2022/06/06 04:27:07;;;;;;;1.20;1.05;;;;;;;;;;4977393;28;20050;-59
2022/06/06 04:29:39;;;;;;;1.52;1.15;;;;;;;;;;5016263;28;20476;-58
2022/06/06 04:32:08;;;;;;;1.13;0.93;;;;;;;;;;5010992;28;20036;-58
2022/06/06 04:34:46;;;;;;;1.30;1.13;;;;;;;;;;5021446;28;20025;-58
2022/06/06 04:37:20;;;;;;;1.42;1.33;;;;;;;;;;5010199;28;20281;-59
2022/06/06 04:39:57;;;;;;;1.60;1.10;;;;;;;;;;5015555;28;20030;-58
2022/06/06 04:42:27;;;;;;;2.10;1.13;;;;;;;;;;5015200;28;20041;-59
2022/06/06 04:45:12;;;;;;;1.35;0.98;;;;;;;;;;5012647;28;20545;-59
2022/06/06 04:47:39;;;;;;;1.10;1.00;;;;;;;;;;5004929;28;20073;-59
2022/06/06 04:50:06;;;;;;;1.75;1.05;;;;;;;;;;5006540;28;20026;-59
2022/06/06 04:52:33;;;;;;;1.10;0.90;;;;;;;;;;5008618;28;20026;-59
2022/06/06 04:54:59;;;;;;;2.47;1.30;;;;;;;;;;5011170;28;20045;-58
2022/06/06 04:57:26;;;;;;;1.67;1.20;;;;;;;;;;5010338;28;20030;-58
2022/06/06 04:59:53;;;;;;;1.52;0.90;;;;;;;;;;5019794;28;20029;-59
2022/06/06 05:02:21;;;;;;;8.00;1.30;;;;;;;;;;5010499;28;20487;-59
2022/06/06 05:04:47;;;;;;;2.15;1.20;;;;;;;;;;5008854;28;20129;-59
2022/06/06 05:07:25;;;;;;;1.63;1.40;;;;;;;;;;5009764;28;20118;-59
2022/06/06 05:10:09;;;;;;;1.20;1.10;;;;;;;;;;5008806;28;20038;-59
2022/06/06 05:12:58;;;;;;;2.10;1.10;;;;;;;;;;5004692;28;20498;-59
2022/06/06 05:15:37;;;;;;;1.88;1.25;;;;;;;;;;5009105;28;20045;-59
2022/06/06 05:18:09;;;;;;;1.00;0.90;;;;;;;;;;5006524;28;20117;-59
2022/06/06 05:20:41;;;;;;;1.30;0.95;;;;;;;;;;5010737;28;20018;-60
2022/06/06 05:23:07;;;;;;;1.75;1.20;;;;;;;;;;4991778;28;20378;-60
2022/06/06 05:25:33;;;;;;;1.13;1.02;;;;;;;;;;5010912;28;20037;-59
2022/06/06 05:27:59;;;;;;;1.83;1.00;;;;;;;;;;5018477;28;20097;-59
2022/06/06 05:30:28;;;;;;;2.60;1.58;;;;;;;;;;5027125;28;20030;-60
2022/06/06 05:33:11;;;;;;;2.50;1.10;;;;;;;;;;5019245;28;20034;-59
2022/06/06 05:35:37;;;;;;;1.67;0.93;;;;;;;;;;5013192;28;20038;-58
2022/06/06 05:38:26;;;;;;;1.58;1.30;;;;;;;;;;5021332;28;20164;-59
2022/06/06 05:40:52;;;;;;;1.02;0.93;;;;;;;;;;5013645;28;20037;-58
2022/06/06 05:43:27;;;;;;;3.03;1.20;;;;;;;;;;5018774;28;20101;-59
2022/06/06 05:45:56;;;;;;;1.13;1.02;;;;;;;;;;5020825;28;20057;-59
2022/06/06 05:48:39;;;;;;;1.83;1.17;;;;;;;;;;5015465;28;20022;-58
2022/06/06 05:51:14;;;;;;;1.02;0.88;;;;;;;;;;5011488;28;20038;-58
2022/06/06 05:53:49;;;;;;;2.17;1.20;;;;;;;;;;5013451;28;20031;-58
2022/06/06 05:56:24;;;;;;;1.77;1.30;;;;;;;;;;5012472;28;20026;-59
2022/06/06 05:59:03;;;;;;;1.65;1.23;;;;;;;;;;5014566;28;20022;-59
2022/06/06 06:01:38;;;;;;;2.85;1.30;;;;;;;;;;5012773;28;20454;-59
2022/06/06 06:04:07;;;;;;;2.45;1.10;;;;;;;;;;5015981;28;20073;-59
2022/06/06 06:06:49;;;;;;;1.17;1.08;;;;;;;;;;5014293;28;20491;-59
2022/06/06 06:09:18;;;;;;;1.00;1.00;;;;;;;;;;5013942;28;20113;-59
2022/06/06 06:12:03;;;;;;;1.40;1.20;;;;;;;;;;5013707;28;20464;-59
2022/06/06 06:14:29;;;;;;;2.88;1.33;;;;;;;;;;5012567;28;20483;-59
2022/06/06 06:16:57;;;;;;;2.22;1.40;;;;;;;;;;5014738;28;20044;-60
2022/06/06 06:19:26;;;;;;;2.38;1.30;;;;;;;;;;5018222;28;20026;-60
2022/06/06 06:21:56;;;;;;;3.00;1.20;;;;;;;;;;5013114;28;20080;-59
2022/06/06 06:24:32;;;;;;;2.08;1.23;;;;;;;;;;5015367;28;20026;-59
2022/06/06 06:26:58;;;;;;;1.10;1.00;;;;;;;;;;5007060;28;20502;-59
2022/06/06 06:29:25;;;;;;;1.83;1.23;;;;;;;;;;5005511;28;20029;-58
2022/06/06 06:32:09;;;;;;;3.30;1.10;;;;;;;;;;5004760;28;20105;-58
2022/06/06 06:34:47;;;;;;;1.85;1.33;;;;;;;;;;5010041;28;20033;-59
2022/06/06 06:37:32;;;;;;;1.30;1.10;;;;;;;;;;5008775;28;20045;-59
2022/06/06 06:39:58;;;;;;;1.50;1.20;;;;;;;;;;5010066;28;20038;-59
2022/06/06 06:42:30;;;;;;;2.53;1.60;;;;;;;;;;5009658;28;20080;-58
2022/06/06 06:45:01;;;;;;;1.92;1.13;;;;;;;;;;5011303;28;20025;-58
2022/06/06 06:47:32;;;;;;;1.95;1.10;;;;;;;;;;5012000;28;20151;-58
2022/06/06 06:50:01;;;;;;;2.03;1.23;;;;;;;;;;5013389;28;20022;-59
2022/06/06 06:52:46;;;;;;;2.50;1.10;;;;;;;;;;5021730;28;20021;-59
2022/06/06 06:55:23;;;;;;;2.53;1.35;;;;;;;;;;5014099;28;20434;-60
2022/06/06 06:57:59;;;;;;;1.52;1.27;;;;;;;;;;5011350;28;20034;-59
2022/06/06 07:00:26;;;;;;;1.75;1.10;;;;;;;;;;5018963;28;20219;-59
2022/06/06 07:09:16;;;;;;;1.25;1.15;;;;;;;;;;4990140;28;20099;-58
2022/06/06 07:11:42;;;;;;;1.77;1.33;;;;;;;;;;5017106;28;20547;-58
2022/06/06 07:14:20;;;;;;;2.75;1.80;;;;;;;;;;5015034;28;20022;-58
2022/06/06 07:16:50;;;;;;;2.25;1.70;;;;;;;;;;5022277;28;20041;-58
2022/06/06 07:19:18;;;;;;;4.03;1.77;;;;;;;;;;5014623;28;20080;-59
2022/06/06 07:21:49;;;;;;;2.42;1.48;;;;;;;;;;5016053;28;20080;-58
2022/06/06 07:24:17;;;;;;;3.95;1.95;;;;;;;;;;5018102;28;20081;-58
2022/06/06 07:26:44;;;;;;;5.03;1.73;;;;;;;;;;5009845;28;20387;-58
2022/06/06 07:29:12;;;;;;;2.80;1.80;;;;;;;;;;5013491;28;20425;-58
2022/06/06 07:31:56;;;;;;;3.55;1.60;;;;;;;;;;5012458;28;20490;-59
2022/06/06 07:34:28;;;;;;;2.33;1.55;;;;;;;;;;5019327;28;20276;-59
2022/06/06 07:37:06;;;;;;;3.67;2.00;;;;;;;;;;5013275;28;20034;-59
2022/06/06 07:39:51;;;;;;;3.80;1.48;;;;;;;;;;5014042;28;20065;-59
2022/06/06 07:42:32;;;;;;;3.67;1.70;;;;;;;;;;5014230;28;20108;-58
2022/06/06 07:44:58;;;;;;;4.72;1.88;;;;;;;;;;5012017;28;20026;-59
2022/06/06 07:47:31;;;;;;;3.38;1.55;;;;;;;;;;5006566;28;20049;-59
2022/06/06 07:49:57;;;;;;;2.70;1.70;;;;;;;;;;5004060;28;20022;-59
2022/06/06 07:52:29;;;;;;;2.95;2.00;;;;;;;;;;5008473;28;20048;-59
2022/06/06 07:55:01;;;;;;;2.90;1.58;;;;;;;;;;5009311;28;20030;-59
2022/06/06 07:57:27;;;;;;;;;;;;;;;;;;5006639;28;20120;-59
2022/06/06 07:59:58;;;;;;;2.38;1.50;;;;;;;;;;5005627;28;19914;-59
2022/06/06 08:02:24;;;;;;;;;;;;;;;;;;5006749;28;20040;-59
2022/06/06 08:05:00;;;;;;;2.40;1.90;;;;;;;;;;5009148;28;19909;-59
2022/06/06 08:07:36;;;;;;;3.45;1.50;;;;;;;;;;5003216;28;20105;-59
2022/06/06 08:10:14;;;;;;;5.80;1.50;;;;;;;;;;5008599;28;20049;-56
2022/06/06 08:12:43;;;;;;;3.58;1.52;;;;;;;;;;5004685;28;20032;-57
2022/06/06 08:15:15;;;;;;;4.63;1.55;;;;;;;;;;5005999;28;20029;-57
2022/06/06 08:17:41;;;;;;;4.47;1.70;;;;;;;;;;5009359;28;20073;-52
2022/06/06 08:20:27;;;;;;;2.83;1.88;;;;;;;;;;5010966;28;20061;-54
2022/06/06 08:22:56;;;;;;;2.55;1.67;;;;;;;;;;5012527;28;20036;-53
2022/06/06 08:25:23;;;;;;;2.90;1.23;;;;;;;;;;5017792;28;20026;-58
2022/06/06 08:27:51;;;;;;;2.35;1.30;;;;;;;;;;5016250;28;20018;-59
2022/06/06 08:30:17;;;;;;;2.97;1.00;;;;;;;;;;5019227;28;20034;-59
2022/06/06 08:32:43;;;;;;;1.65;1.40;;;;;;;;;;5018591;28;20030;-60
2022/06/06 08:35:10;;;;;;;4.25;1.90;;;;;;;;;;5015247;28;20026;-57
2022/06/06 08:37:51;;;;;;;6.55;2.95;;;;;;;;;;5018048;28;20026;-57
2022/06/06 08:40:43;;;;;;;2.27;1.97;;;;;;;;;;5016977;28;20542;-59
2022/06/06 08:43:09;;;;;;;2.28;1.50;;;;;;;;;;5015261;28;20635;-59
2022/06/06 08:45:47;;;;;;;2.03;1.75;;;;;;;;;;5020533;28;20104;-62
2022/06/06 08:48:32;;;;;;;4.45;1.40;;;;;;;;;;5021346;28;21800;-60
2022/06/06 08:50:58;;;;;;;3.20;1.75;;;;;;;;;;5015092;28;20487;-59
2022/06/06 08:53:32;;;;;;;4.80;1.52;;;;;;;;;;5020197;28;20041;-60
2022/06/06 08:56:18;;;;;;;2.05;1.42;;;;;;;;;;5018388;28;20509;-59
2022/06/06 08:58:44;;;;;;;1.60;1.38;;;;;;;;;;5023765;28;20486;-59
2022/06/06 09:01:19;;;;;;;2.75;1.30;;;;;;;;;;5023858;28;20030;-58
2022/06/06 09:03:54;;;;;;;2.67;1.30;;;;;;;;;;5016025;28;20367;-59
2022/06/06 09:06:33;;;;;;;1.55;1.42;;;;;;;;;;5014907;28;20538;-59
2022/06/06 09:09:08;;;;;;;3.05;1.73;;;;;;;;;;5022138;28;20091;-58
2022/06/06 09:11:56;;;;;;;1.42;1.27;;;;;;;;;;5015838;28;20105;-54
2022/06/06 09:14:38;;;;;;;1.95;1.40;;;;;;;;;;5013818;28;20038;-59
2022/06/06 09:17:13;;;;;;;4.63;1.45;;;;;;;;;;5008432;28;20034;-59
2022/06/06 09:20:05;;;;;;;2.10;1.00;;;;;;;;;;5009137;28;20164;-59
2022/06/06 09:22:32;;;;;;;2.10;1.13;;;;;;;;;;4979540;28;20498;-58
2022/06/06 09:25:15;;;;;;;3.00;1.27;;;;;;;;;;5011524;28;20463;-57
2022/06/06 09:27:53;;;;;;;2.58;1.23;;;;;;;;;;5012077;28;20038;-58
2022/06/06 09:30:40;;;;;;;1.48;1.30;;;;;;;;;;5007906;28;20550;-60
2022/06/06 09:33:06;;;;;;;1.17;0.93;;;;;;;;;;4999821;28;20042;-59
2022/06/06 09:35:50;;;;;;;1.83;1.35;;;;;;;;;;5008360;28;20034;-62
2022/06/06 09:38:16;;;;;;;1.30;1.08;;;;;;;;;;5011198;28;20025;-58
2022/06/06 09:40:50;;;;;;;2.08;1.20;;;;;;;;;;5007023;28;20018;-58
2022/06/06 09:43:28;;;;;;;1.98;1.10;;;;;;;;;;5012516;28;20026;-59
2022/06/06 09:46:12;;;;;;;3.90;1.52;;;;;;;;;;5018441;28;20045;-60
2022/06/06 09:48:41;;;;;;;2.33;1.38;;;;;;;;;;5011372;28;20109;-59
2022/06/06 09:51:27;;;;;;;1.90;0.90;;;;;;;;;;5013576;28;20030;-59
2022/06/06 09:59:40;;;;;;;1.35;1.05;;;;;;;;;;5017550;28;20108;-59
2022/06/06 10:02:29;;;;;;;1.27;1.10;;;;;;;;;;5016363;28;20364;-60
2022/06/06 10:05:03;;;;;;;1.30;1.20;;;;;;;;;;5018605;28;20538;-58
2022/06/06 10:07:28;;;;;;;2.25;1.40;;;;;;;;;;5017775;28;20026;-60
2022/06/06 10:10:13;;;;;;;1.60;0.90;;;;;;;;;;5013746;28;20483;-59
2022/06/06 10:12:58;;;;;;;2.88;0.88;;;;;;;;;;5012726;28;20030;-60
2022/06/06 10:15:42;;;;;;;1.73;1.10;;;;;;;;;;5016330;28;20037;-59
2022/06/06 10:18:27;;;;;;;1.95;1.23;;;;;;;;;;5015807;28;20029;-59
2022/06/06 10:20:59;;;;;;;1.00;0.82;;;;;;;;;;5012312;28;20034;-59
2022/06/06 10:23:36;;;;;;;2.30;0.80;;;;;;;;;;5017311;28;20025;-59
2022/06/06 10:26:12;;;;;;;2.55;1.45;;;;;;;;;;5005288;28;20030;-59
2022/06/06 10:28:56;;;;;;;3.67;1.02;;;;;;;;;;5019384;28;20563;-59
2022/06/06 10:31:25;;;;;;;1.45;0.95;;;;;;;;;;5006915;28;20117;-59
2022/06/06 10:33:54;;;;;;;1.77;1.02;;;;;;;;;;5015922;28;20105;-58
2022/06/06 10:36:40;;;;;;;1.10;0.88;;;;;;;;;;5011872;28;20383;-57
2022/06/06 10:39:25;;;;;;;3.55;1.15;;;;;;;;;;5011685;28;20479;-57
2022/06/06 10:42:01;;;;;;;5.70;1.17;;;;;;;;;;5006989;28;20026;-61
2022/06/06 10:44:33;;;;;;;2.13;1.05;;;;;;;;;;5000350;28;20092;-61
2022/06/06 10:47:06;;;;;;;1.30;0.98;;;;;;;;;;5007104;28;20050;-59
2022/06/06 10:49:32;;;;;;;0.98;0.75;;;;;;;;;;5007095;28;20021;-59
2022/06/06 10:52:18;;;;;;;2.08;1.20;;;;;;;;;;5007908;28;20121;-59
2022/06/06 10:54:50;;;;;;;9.10;1.15;;;;;;;;;;4971740;28;20042;-59
2022/06/06 10:57:19;;;;;;;1.23;1.08;;;;;;;;;;5008067;28;20069;-59
2022/06/06 10:59:57;;;;;;;1.40;1.00;;;;;;;;;;5003926;28;20113;-60
2022/06/06 11:02:30;;;;;;;1.48;1.27;;;;;;;;;;5014874;28;20022;-59
2022/06/06 11:05:08;;;;;;;1.85;1.20;;;;;;;;;;5004872;28;20418;-55
2022/06/06 11:07:53;;;;;;;2.28;1.10;;;;;;;;;;5007823;28;20156;-58
2022/06/06 11:10:37;;;;;;;3.08;1.40;;;;;;;;;;5008483;28;20049;-58
2022/06/06 11:13:15;;;;;;;2.35;1.42;;;;;;;;;;5009084;28;20038;-59
2022/06/06 11:15:45;;;;;;;3.95;1.33;;;;;;;;;;5009187;28;20125;-55
2022/06/06 11:18:17;;;;;;;2.30;1.20;;;;;;;;;;5003696;28;20030;-58
2022/06/06 11:20:46;;;;;;;1.40;0.90;;;;;;;;;;5010228;28;20087;-58
2022/06/06 11:23:32;;;;;;;2.00;0.90;;;;;;;;;;5005099;28;20475;-58
2022/06/06 11:25:58;;;;;;;1.45;1.10;;;;;;;;;;5004663;28;20034;-58
2022/06/06 11:28:35;;;;;;;1.73;1.17;;;;;;;;;;5010332;28;20489;-58
2022/06/06 11:31:22;;;;;;;1.55;1.35;;;;;;;;;;5015825;28;20490;-58
2022/06/06 11:33:48;;;;;;;1.45;1.00;;;;;;;;;;5011502;28;20026;-55
2022/06/06 11:36:23;;;;;;;1.63;1.27;;;;;;;;;;5011563;28;20530;-56
2022/06/06 11:39:07;;;;;;;1.73;1.05;;;;;;;;;;5020494;28;20025;-59
2022/06/06 11:41:48;;;;;;;1.55;1.02;;;;;;;;;;5011099;28;20044;-58
2022/06/06 11:44:33;;;;;;;2.33;1.30;;;;;;;;;;5020996;28;20075;-59
2022/06/06 11:47:14;;;;;;;1.40;1.00;;;;;;;;;;5005853;28;20037;-57
2022/06/06 11:50:00;;;;;;;1.83;1.05;;;;;;;;;;5010698;28;20030;-59
2022/06/06 11:52:53;;;;;;;2.72;1.08;;;;;;;;;;5010742;28;20041;-56
2022/06/06 11:55:20;;;;;;;2.10;0.88;;;;;;;;;;4985081;28;20045;-54
2022/06/06 11:57:52;;;;;;;1.92;1.40;;;;;;;;;;5020918;28;20475;-59
2022/06/06 12:00:36;;;;;;;3.00;1.30;;;;;;;;;;5017837;28;20026;-58
2022/06/06 12:03:14;;;;;;;1.40;1.30;;;;;;;;;;5008083;28;20091;-60
2022/06/06 12:06:00;;;;;;;3.03;1.02;;;;;;;;;;5019868;28;20033;-54
2022/06/06 12:08:44;;;;;;;2.45;1.35;;;;;;;;;;5014439;28;20030;-57
2022/06/06 12:11:10;;;;;;;1.60;1.05;;;;;;;;;;5027458;28;20041;-59
2022/06/06 12:14:05;;;;;;;1.45;1.02;;;;;;;;;;5016548;28;20029;-59
2022/06/06 12:16:49;;;;;;;4.47;1.10;;;;;;;;;;5012764;28;20037;-58
2022/06/06 12:19:40;;;;;;;1.98;1.25;;;;;;;;;;5020104;28;20109;-59
2022/06/06 12:22:12;;;;;;;2.92;1.15;;;;;;;;;;5018431;28;20359;-58
2022/06/06 12:24:49;;;;;;;1.33;1.10;;;;;;;;;;5013885;28;20036;-59
2022/06/06 12:27:20;;;;;;;1.70;1.15;;;;;;;;;;5008059;28;20033;-58
2022/06/06 12:29:46;;;;;;;3.58;1.20;;;;;;;;;;5012257;28;20084;-59
2022/06/06 12:32:21;;;;;;;3.40;1.10;;;;;;;;;;5012028;28;20038;-59
2022/06/06 12:34:52;;;;;;;5.45;1.30;;;;;;;;;;5011576;28;20053;-59
2022/06/06 12:37:18;;;;;;;;;;;;;;;;;;5010435;28;20042;-59
2022/06/06 12:39:47;;;;;;;2.78;1.10;;;;;;;;;;5011277;28;19916;-60
2022/06/06 12:42:19;;;;;;;1.38;1.00;;;;;;;;;;5011067;28;20386;-59
2022/06/06 12:45:00;;;;;;;2.58;1.33;;;;;;;;;;5011289;28;20467;-59
2022/06/06 12:47:26;;;;;;;4.93;1.20;;;;;;;;;;5008486;28;20096;-58
2022/06/06 12:50:10;;;;;;;3.50;0.85;;;;;;;;;;5015731;28;20025;-59
2022/06/06 12:52:55;;;;;;;2.17;0.88;;;;;;;;;;5017799;28;20061;-59
2022/06/06 12:58:49;;;;;;;1.15;0.98;;;;;;;;;;4953987;28;20091;-59
2022/06/06 13:01:40;;;;;;;0.95;0.80;;;;;;;;;;5017206;28;20039;-59
2022/06/06 13:04:12;;;;;;;2.25;0.90;;;;;;;;;;5020275;28;20018;-59
2022/06/06 13:06:47;;;;;;;1.35;1.05;;;;;;;;;;5024568;28;20164;-59
2022/06/06 13:09:15;;;;;;;2.33;0.80;;;;;;;;;;5013452;28;20034;-59
2022/06/06 13:11:48;;;;;;;1.83;0.95;;;;;;;;;;5013503;28;20017;-59
2022/06/06 13:14:17;;;;;;;1.08;0.88;;;;;;;;;;5004418;28;20387;-59
2022/06/06 13:16:43;;;;;;;1.23;0.93;;;;;;;;;;5020264;28;20038;-59
2022/06/06 13:19:26;;;;;;;2.60;1.05;;;;;;;;;;5016593;28;20030;-59
2022/06/06 13:22:11;;;;;;;1.88;0.93;;;;;;;;;;5014361;28;20049;-59
2022/06/06 13:24:37;;;;;;;1.67;0.90;;;;;;;;;;5009389;28;20124;-59
2022/06/06 13:27:15;;;;;;;6.25;1.02;;;;;;;;;;5014252;28;20144;-59
2022/06/06 13:29:41;;;;;;;3.45;1.38;;;;;;;;;;5016416;28;20038;-59
2022/06/06 13:32:13;;;;;;;1.63;1.00;;;;;;;;;;5016000;28;20034;-59
2022/06/06 13:35:07;;;;;;;1.50;1.17;;;;;;;;;;5015431;28;20026;-59
2022/06/06 13:37:42;;;;;;;1.30;1.00;;;;;;;;;;5013410;28;20050;-59
2022/06/06 13:40:27;;;;;;;1.83;1.15;;;;;;;;;;5014438;28;20080;-59
2022/06/06 13:42:55;;;;;;;1.85;0.82;;;;;;;;;;5013890;28;20034;-59
2022/06/06 13:45:28;;;;;;;1.45;1.25;;;;;;;;;;5011985;28;20022;-58
2022/06/06 13:47:57;;;;;;;3.20;1.10;;;;;;;;;;5008805;28;20030;-59
2022/06/06 13:50:42;;;;;;;1.40;0.85;;;;;;;;;;5008134;28;20479;-58
2022/06/06 13:53:10;;;;;;;1.27;0.80;;;;;;;;;;5011181;28;20061;-58
2022/06/06 13:55:38;;;;;;;1.20;1.00;;;;;;;;;;5003157;28;20038;-58
2022/06/06 13:58:17;;;;;;;1.00;0.80;;;;;;;;;;5002199;28;20033;-58
2022/06/06 14:00:45;;;;;;;1.90;0.90;;;;;;;;;;5015058;28;20038;-58
2022/06/06 14:03:19;;;;;;;1.65;1.00;;;;;;;;;;5007700;28;20042;-58
2022/06/06 14:05:54;;;;;;;0.95;0.80;;;;;;;;;;5010657;28;20040;-58
2022/06/06 14:08:21;;;;;;;0.90;0.90;;;;;;;;;;5010350;28;20032;-59
2022/06/06 14:10:53;;;;;;;2.08;1.38;;;;;;;;;;5009413;28;20040;-58
2022/06/06 14:13:38;;;;;;;1.08;1.00;;;;;;;;;;5007500;28;20026;-58
2022/06/06 14:16:15;;;;;;;1.00;0.90;;;;;;;;;;5011408;28;20069;-58
2022/06/06 14:18:41;;;;;;;2.00;1.00;;;;;;;;;;5006416;28;20033;-59
2022/06/06 14:21:07;;;;;;;1.73;1.10;;;;;;;;;;5006783;28;20388;-59
2022/06/06 14:23:37;;;;;;;2.08;0.93;;;;;;;;;;5007716;28;20026;-58
2022/06/06 14:26:08;;;;;;;2.22;1.17;;;;;;;;;;5009246;28;20430;-58
2022/06/06 14:28:35;;;;;;;1.23;1.05;;;;;;;;;;5011859;28;20511;-59
2022/06/06 14:31:02;;;;;;;1.38;1.10;;;;;;;;;;5021394;28;20028;-58
2022/06/06 14:33:35;;;;;;;2.05;0.80;;;;;;;;;;5013306;28;20030;-59
2022/06/06 14:36:19;;;;;;;1.55;0.82;;;;;;;;;;5013050;28;20168;-54
2022/06/06 14:38:45;;;;;;;1.50;1.20;;;;;;;;;;5012018;28;20119;-60
2022/06/06 14:41:13;;;;;;;1.15;0.90;;;;;;;;;;5015941;28;20022;-53
2022/06/06 14:43:48;;;;;;;3.33;0.90;;;;;;;;;;5015704;28;20026;-52
2022/06/06 14:46:14;;;;;;;3.45;1.35;;;;;;;;;;5011356;28;20042;-53
2022/06/06 14:48:43;;;;;;;1.98;1.17;;;;;;;;;;5012519;28;20025;-52
2022/06/06 14:51:10;;;;;;;1.55;1.05;;;;;;;;;;5011620;28;20057;-58
2022/06/06 14:54:02;;;;;;;1.40;1.00;;;;;;;;;;5013390;28;20486;-58
2022/06/06 14:56:34;;;;;;;1.98;1.10;;;;;;;;;;5010706;28;20522;-58
2022/06/06 14:59:14;;;;;;;1.15;1.00;;;;;;;;;;5004642;28;20418;-57
2022/06/06 15:01:41;;;;;;;1.75;1.02;;;;;;;;;;5010931;28;20036;-57
2022/06/06 15:04:36;;;;;;;3.08;1.73;;;;;;;;;;5015708;28;20119;-57
2022/06/06 15:07:02;;;;;;;1.95;1.42;;;;;;;;;;4998104;28;20042;-54
2022/06/06 15:09:40;;;;;;;1.73;1.10;;;;;;;;;;5011209;28;20034;-57
2022/06/06 15:12:06;;;;;;;1.15;0.98;;;;;;;;;;5011848;28;20033;-58
2022/06/06 15:14:34;;;;;;;1.58;0.82;;;;;;;;;;5013881;28;20123;-50
2022/06/06 15:17:02;;;;;;;2.35;1.00;;;;;;;;;;5011618;28;20116;-53
2022/06/06 15:19:40;;;;;;;4.70;1.10;;;;;;;;;;5016146;28;20371;-47
2022/06/06 15:22:06;;;;;;;3.47;1.30;;;;;;;;;;5018256;28;20022;-50
2022/06/06 15:24:36;;;;;;;3.35;1.25;;;;;;;;;;5010714;28;20029;-55
2022/06/06 15:27:11;;;;;;;1.15;0.93;;;;;;;;;;5010753;28;20388;-56
2022/06/06 15:29:40;;;;;;;2.05;1.15;;;;;;;;;;5004579;28;20026;-57
2022/06/06 15:32:17;;;;;;;3.47;1.23;;;;;;;;;;5005228;28;20022;-56
2022/06/06 15:34:52;;;;;;;2.65;1.67;;;;;;;;;;5008767;28;20063;-57
2022/06/06 15:37:18;;;;;;;2.85;1.27;;;;;;;;;;5007695;28;20419;-57
2022/06/06 15:39:47;;;;;;;2.03;1.00;;;;;;;;;;5008030;28;20026;-57
2022/06/06 15:42:18;;;;;;;2.08;1.02;;;;;;;;;;5006350;28;20037;-56